Time;durP1;ratioP1;P1;durP2;ratioP2;P2;SDS_P1;SDS_P2;PMS_P1;PMS_P2;Temp;Humidity;BMP_temperature;BMP_pressure;BME280_temperature;BME280_humidity;BME280_pressure;Samples;Min_cycle;Max_cycle;Signal;HPM_P1;HPM_P2
2022/08/18 00:02:08;;;;;;;;;;;;;;;;;;5102583;28;19923;-81
2022/08/18 00:04:37;;;;;;;;;;;;;;;;;;5097054;28;19927;-81
2022/08/18 00:07:06;;;;;;;;;;;;;;;;;;5097671;28;19916;-81
2022/08/18 00:09:34;;;;;;;;;;;;;;;;;;5096241;28;19916;-82
2022/08/18 00:12:01;;;;;;;;;;;;;;;;;;5079018;28;20330;-82
2022/08/18 00:14:27;;;;;;;;;;;;;;;;;;5096258;28;19912;-82
2022/08/18 00:16:52;;;;;;;;;;;;;;;;;;5097332;28;19951;-82
2022/08/18 00:19:19;;;;;;;;;;;;;;;;;;5095930;28;20286;-81
2022/08/18 00:21:45;;;;;;;;;;;;;;;;;;5097103;28;19916;-82
2022/08/18 00:24:10;;;;;;;;;;;;;;;;;;5095995;28;19922;-82
2022/08/18 00:26:35;;;;;;;;;;;;;;;;;;5096879;28;19912;-80
2022/08/18 00:29:01;;;;;;;;;;;;;;;;;;5096781;28;19920;-82
2022/08/18 00:31:28;;;;;;;;;;;;;;;;;;5096824;28;20296;-83
2022/08/18 00:33:53;;;;;;;;;;;;;;;;;;5095475;28;20053;-83
2022/08/18 00:36:19;;;;;;;;;;;;;;;;;;5096793;28;20014;-82
2022/08/18 00:38:44;;;;;;;;;;;;;;;;;;5096662;28;20006;-82
2022/08/18 00:41:09;;;;;;;;;;;;;;;;;;5095339;28;20053;-81
2022/08/18 00:43:38;;;;;;;;;;;;;;;;;;5095220;28;19985;-83
2022/08/18 00:46:05;;;;;;;;;;;;;;;;;;5096314;28;20026;-82
2022/08/18 00:48:30;;;;;;;;;;;;;;;;;;5093978;28;19916;-82
2022/08/18 00:50:57;;;;;;;;;;;;;;;;;;5078617;28;19916;-82
2022/08/18 00:53:25;;;;;;;;;;;;;;;;;;5095416;28;19920;-81
2022/08/18 00:55:50;;;;;;;;;;;;;;;;;;5095212;28;19922;-82
2022/08/18 00:58:20;;;;;;;;;;;;;;;;;;5096327;28;19917;-82
2022/08/18 01:00:46;;;;;;;;;;;;;;;;;;5109683;28;19920;-83
2022/08/18 01:03:12;;;;;;;;;;;;;;;;;;5098270;28;19964;-82
2022/08/18 01:05:42;;;;;;;;;;;;;;;;;;5116795;28;19922;-83
2022/08/18 01:08:10;;;;;;;;;;;;;;;;;;5098349;28;19916;-82
2022/08/18 01:10:36;;;;;;;;;;;;;;;;;;5098518;28;19923;-81
2022/08/18 01:13:01;;;;;;;;;;;;;;;;;;5098384;28;19988;-82
2022/08/18 01:15:27;;;;;;;;;;;;;;;;;;5116147;28;19932;-82
2022/08/18 01:23:27;;;;;;;;;;;;;;;;;;5116134;28;19916;-82
2022/08/18 01:26:03;;;;;;;;;;;;;;;;;;5097961;28;19964;-81
2022/08/18 01:28:31;;;;;;;;;;;;;;;;;;5116030;28;19919;-81
2022/08/18 01:30:59;;;;;;;;;;;;;;;;;;5116084;28;20010;-82
2022/08/18 01:33:31;;;;;;;;;;;;;;;;;;5116331;28;19955;-82
2022/08/18 01:35:57;;;;;;;;;;;;;;;;;;5116457;28;19916;-82
2022/08/18 01:38:23;;;;;;;;;;;;;;;;;;5115920;28;19916;-82
2022/08/18 01:40:48;;;;;;;;;;;;;;;;;;5100549;28;19915;-81
2022/08/18 01:43:13;;;;;;;;;;;;;;;;;;5116731;28;20317;-81
2022/08/18 01:45:39;;;;;;;;;;;;;;;;;;5080261;28;19919;-83
2022/08/18 01:48:05;;;;;;;;;;;;;;;;;;5115743;28;20434;-81
2022/08/18 01:50:33;;;;;;;;;;;;;;;;;;5080637;28;19938;-82
2022/08/18 01:52:58;;;;;;;;;;;;;;;;;;5115634;28;19916;-81
2022/08/18 01:55:27;;;;;;;;;;;;;;;;;;5097529;28;19912;-83
2022/08/18 01:57:52;;;;;;;;;;;;;;;;;;5082755;28;19916;-81
2022/08/18 02:00:18;;;;;;;;;;;;;;;;;;5118001;28;19923;-80
2022/08/18 02:02:43;;;;;;;;;;;;;;;;;;5097230;28;19915;-81
2022/08/18 02:05:10;;;;;;;;;;;;;;;;;;5097366;28;20349;-82
2022/08/18 02:07:35;;;;;;;;;;;;;;;;;;5115404;28;19953;-81
2022/08/18 02:10:01;;;;;;;;;;;;;;;;;;5097293;28;20332;-82
2022/08/18 02:12:26;;;;;;;;;;;;;;;;;;5115423;28;20006;-80
2022/08/18 02:14:52;;;;;;;;;;;;;;;;;;5096868;28;19919;-82
2022/08/18 02:17:17;;;;;;;;;;;;;;;;;;5097466;28;20341;-82
2022/08/18 02:19:43;;;;;;;;;;;;;;;;;;5115226;28;19934;-82
2022/08/18 02:22:09;;;;;;;;;;;;;;;;;;5096931;28;19915;-82
2022/08/18 02:24:34;;;;;;;;;;;;;;;;;;5115111;28;19972;-83
2022/08/18 02:27:00;;;;;;;;;;;;;;;;;;5115065;28;20270;-82
2022/08/18 02:29:25;;;;;;;;;;;;;;;;;;5079808;28;19965;-81
2022/08/18 02:31:50;;;;;;;;;;;;;;;;;;5096864;28;20407;-82
2022/08/18 02:34:16;;;;;;;;;;;;;;;;;;5096839;28;20386;-81
2022/08/18 02:36:41;;;;;;;;;;;;;;;;;;5096849;28;20006;-81
2022/08/18 02:39:06;;;;;;;;;;;;;;;;;;5080421;28;19918;-81
2022/08/18 02:41:32;;;;;;;;;;;;;;;;;;5114826;28;19916;-81
2022/08/18 02:43:58;;;;;;;;;;;;;;;;;;5096570;28;19964;-82
2022/08/18 02:46:24;;;;;;;;;;;;;;;;;;5096726;28;19911;-81
2022/08/18 02:48:51;;;;;;;;;;;;;;;;;;5079929;28;20186;-82
2022/08/18 02:51:17;;;;;;;;;;;;;;;;;;5114815;28;19920;-81
2022/08/18 02:53:42;;;;;;;;;;;;;;;;;;5096652;28;19960;-81
2022/08/18 02:56:44;;;;;;;;;;;;;;;;;;5096531;28;20276;-81
2022/08/18 02:59:03;;;;;;;;;;;;;;;;;;5109750;28;19911;-82
2022/08/18 03:01:30;;;;;;;;;;;;;;;;;;5079968;28;19920;-81
2022/08/18 03:03:56;;;;;;;;;;;;;;;;;;5114628;28;19916;-81
2022/08/18 03:06:21;;;;;;;;;;;;;;;;;;5096697;28;20249;-82
2022/08/18 03:08:48;;;;;;;;;;;;;;;;;;5114882;28;20325;-82
2022/08/18 03:11:15;;;;;;;;;;;;;;;;;;5080764;28;19922;-83
2022/08/18 03:13:40;;;;;;;;;;;;;;;;;;5100639;28;19962;-81
2022/08/18 03:16:06;;;;;;;;;;;;;;;;;;5106005;28;19916;-81
2022/08/18 03:18:32;;;;;;;;;;;;;;;;;;5110216;28;19945;-82
2022/08/18 03:20:58;;;;;;;;;;;;;;;;;;5101198;28;19916;-81
2022/08/18 03:23:23;;;;;;;;;;;;;;;;;;5118524;28;20003;-82
2022/08/18 03:25:48;;;;;;;;;;;;;;;;;;5100295;28;19989;-82
2022/08/18 03:28:14;;;;;;;;;;;;;;;;;;5118474;28;19923;-82
2022/08/18 03:30:39;;;;;;;;;;;;;;;;;;5100151;28;19916;-82
2022/08/18 03:33:04;;;;;;;;;;;;;;;;;;5100226;28;19916;-83
2022/08/18 03:35:30;;;;;;;;;;;;;;;;;;5118326;28;20010;-82
2022/08/18 03:37:58;;;;;;;;;;;;;;;;;;5118275;28;19920;-81
2022/08/18 03:40:24;;;;;;;;;;;;;;;;;;5117979;28;19916;-80
2022/08/18 03:42:49;;;;;;;;;;;;;;;;;;5100096;28;20325;-82
2022/08/18 03:45:14;;;;;;;;;;;;;;;;;;5118121;28;20345;-82
2022/08/18 03:47:40;;;;;;;;;;;;;;;;;;5118322;28;20352;-82
2022/08/18 03:50:05;;;;;;;;;;;;;;;;;;5118053;28;19916;-82
2022/08/18 03:52:31;;;;;;;;;;;;;;;;;;5117910;28;19974;-82
2022/08/18 03:54:56;;;;;;;;;;;;;;;;;;5099662;28;19973;-82
2022/08/18 03:57:21;;;;;;;;;;;;;;;;;;5117953;28;19916;-82
2022/08/18 03:59:47;;;;;;;;;;;;;;;;;;5117627;28;19927;-82
2022/08/18 04:02:13;;;;;;;;;;;;;;;;;;5118127;28;19923;-81
2022/08/18 04:04:38;;;;;;;;;;;;;;;;;;5117887;28;20035;-81
2022/08/18 04:07:08;;;;;;;;;;;;;;;;;;5099609;28;20363;-82
2022/08/18 04:09:33;;;;;;;;;;;;;;;;;;5099261;28;19974;-82
2022/08/18 04:12:02;;;;;;;;;;;;;;;;;;5082638;28;20008;-81
2022/08/18 04:14:30;;;;;;;;;;;;;;;;;;5082456;28;20265;-81
2022/08/18 04:16:55;;;;;;;;;;;;;;;;;;5099680;28;19916;-82
2022/08/18 04:19:21;;;;;;;;;;;;;;;;;;5117661;28;19916;-82
2022/08/18 04:21:50;;;;;;;;;;;;;;;;;;5098887;28;19916;-80
2022/08/18 04:24:16;;;;;;;;;;;;;;;;;;5099177;28;19911;-81
2022/08/18 04:26:42;;;;;;;;;;;;;;;;;;5117305;28;20408;-82
2022/08/18 04:29:08;;;;;;;;;;;;;;;;;;5082361;28;19916;-82
2022/08/18 04:31:33;;;;;;;;;;;;;;;;;;5082271;28;19911;-82
2022/08/18 04:33:59;;;;;;;;;;;;;;;;;;5098909;28;20002;-82
2022/08/18 04:36:24;;;;;;;;;;;;;;;;;;5098946;28;19959;-81
2022/08/18 04:38:49;;;;;;;;;;;;;;;;;;5098583;28;20010;-81
2022/08/18 04:41:15;;;;;;;;;;;;;;;;;;5081904;28;19916;-81
2022/08/18 04:43:40;;;;;;;;;;;;;;;;;;5116937;28;20911;-81
2022/08/18 04:46:06;;;;;;;;;;;;;;;;;;5082442;28;20245;-81
2022/08/18 04:48:32;;;;;;;;;;;;;;;;;;5098749;28;19964;-81
2022/08/18 04:51:18;;;;;;;;;;;;;;;;;;5081987;28;20261;-81
2022/08/18 04:53:46;;;;;;;;;;;;;;;;;;5115837;28;19976;-82
2022/08/18 04:56:33;;;;;;;;;;;;;;;;;;5082259;28;19930;-81
2022/08/18 04:59:05;;;;;;;;;;;;;;;;;;5116466;28;19916;-81
2022/08/18 05:01:33;;;;;;;;;;;;;;;;;;5098668;28;19927;-82
2022/08/18 05:03:59;;;;;;;;;;;;;;;;;;5098785;28;19916;-81
2022/08/18 05:06:24;;;;;;;;;;;;;;;;;;5116642;28;19935;-81
2022/08/18 05:08:52;;;;;;;;;;;;;;;;;;5098175;28;19916;-82
2022/08/18 05:11:17;;;;;;;;;;;;;;;;;;5098578;28;19919;-82
2022/08/18 05:13:42;;;;;;;;;;;;;;;;;;5081269;28;19916;-82
2022/08/18 05:16:08;;;;;;;;;;;;;;;;;;5116286;28;19958;-82
2022/08/18 05:18:37;;;;;;;;;;;;;;;;;;5098064;28;19912;-82
2022/08/18 05:21:02;;;;;;;;;;;;;;;;;;5081604;28;19916;-82
2022/08/18 05:23:28;;;;;;;;;;;;;;;;;;5115913;28;20348;-82
2022/08/18 05:25:57;;;;;;;;;;;;;;;;;;5097703;28;19973;-82
2022/08/18 05:28:22;;;;;;;;;;;;;;;;;;5098116;28;19954;-83
2022/08/18 05:30:48;;;;;;;;;;;;;;;;;;5098069;28;19950;-82
2022/08/18 05:33:13;;;;;;;;;;;;;;;;;;5097656;28;20353;-83
2022/08/18 05:35:46;;;;;;;;;;;;;;;;;;5097434;28;20347;-82
2022/08/18 05:38:14;;;;;;;;;;;;;;;;;;5098016;28;19937;-82
2022/08/18 05:40:40;;;;;;;;;;;;;;;;;;5115848;28;20303;-83
2022/08/18 05:43:05;;;;;;;;;;;;;;;;;;5115809;28;19916;-82
2022/08/18 05:45:32;;;;;;;;;;;;;;;;;;5097534;28;20313;-82
2022/08/18 05:48:01;;;;;;;;;;;;;;;;;;5097849;28;19916;-82
2022/08/18 05:50:26;;;;;;;;;;;;;;;;;;5097916;28;19962;-82
2022/08/18 05:52:53;;;;;;;;;;;;;;;;;;5097478;28;19959;-82
2022/08/18 05:58:14;;;;;;;;;;;;;;;;;;5100077;28;20320;-82
2022/08/18 06:00:40;;;;;;;;;;;;;;;;;;5097223;28;19924;-83
2022/08/18 06:03:12;;;;;;;;;;;;;;;;;;5080523;28;19942;-83
2022/08/18 06:05:40;;;;;;;;;;;;;;;;;;5115097;28;19915;-82
2022/08/18 06:08:09;;;;;;;;;;;;;;;;;;5097208;28;19922;-82
2022/08/18 06:10:35;;;;;;;;;;;;;;;;;;5115369;28;19922;-83
2022/08/18 06:13:00;;;;;;;;;;;;;;;;;;5115156;28;19916;-83
2022/08/18 06:15:51;;;;;;;;;;;;;;;;;;5097571;28;19923;-79
2022/08/18 06:18:19;;;;;;;;;;;;;;;;;;5115067;28;19915;-79
2022/08/18 06:20:52;;;;;;;;;;;;;;;;;;5096708;28;19916;-77
2022/08/18 06:23:20;;;;;;;;;;;;;;;;;;5096879;28;20261;-77
2022/08/18 06:25:46;;;;;;;;;;;;;;;;;;5097061;28;20250;-78
2022/08/18 06:28:13;;;;;;;;;;;;;;;;;;5115193;28;19915;-78
2022/08/18 06:30:45;;;;;;;;;;;;;;;;;;5096892;28;19923;-77
2022/08/18 06:33:14;;;;;;;;;;;;;;;;;;5115392;28;19922;-78
2022/08/18 06:35:39;;;;;;;;;;;;;;;;;;5114565;28;19915;-78
2022/08/18 06:40:48;;;;;;;;;;;;;;;;;;5114777;28;19938;-78
2022/08/18 06:43:15;;;;;;;;;;;;;;;;;;5115004;28;20337;-78
2022/08/18 06:45:41;;;;;;;;;;;;;;;;;;5096830;28;19922;-77
2022/08/18 06:48:15;;;;;;;;;;;;;;;;;;5096950;28;20002;-78
2022/08/18 06:50:44;;;;;;;;;;;;;;;;;;5114581;28;19955;-77
2022/08/18 06:53:09;;;;;;;;;;;;;;;;;;5096750;28;19920;-78
2022/08/18 06:55:36;;;;;;;;;;;;;;;;;;5096467;28;20250;-78
2022/08/18 06:58:18;;;;;;;;;;;;;;;;;;5096630;28;19920;-78
2022/08/18 07:00:52;;;;;;;;;;;;;;;;;;5096538;28;19919;-78
2022/08/18 07:03:19;;;;;;;;;;;;;;;;;;5096216;28;19964;-78
2022/08/18 07:06:03;;;;;;;;;;;;;;;;;;5096426;28;19966;-77
2022/08/18 07:08:28;;;;;;;;;;;;;;;;;;5114575;28;20324;-77
2022/08/18 07:10:54;;;;;;;;;;;;;;;;;;5096218;28;19963;-77
2022/08/18 07:13:26;;;;;;;;;;;;;;;;;;5114606;28;19916;-77
2022/08/18 07:15:52;;;;;;;;;;;;;;;;;;5096446;28;19937;-78
2022/08/18 07:18:22;;;;;;;;;;;;;;;;;;5096192;28;19964;-77
2022/08/18 07:20:52;;;;;;;;;;;;;;;;;;5096336;28;19939;-77
2022/08/18 07:23:24;;;;;;;;;;;;;;;;;;5096841;28;20061;-78
2022/08/18 07:25:49;;;;;;;;;;;;;;;;;;5114425;28;19916;-78
2022/08/18 07:28:28;;;;;;;;;;;;;;;;;;5096205;28;19920;-77
2022/08/18 07:31:04;;;;;;;;;;;;;;;;;;5096220;28;19915;-78
2022/08/18 07:33:29;;;;;;;;;;;;;;;;;;5095904;28;19915;-78
2022/08/18 07:35:57;;;;;;;;;;;;;;;;;;5096495;28;19927;-78
2022/08/18 07:38:30;;;;;;;;;;;;;;;;;;5096477;28;19935;-77
2022/08/18 07:41:08;;;;;;;;;;;;;;;;;;5096061;28;20376;-77
2022/08/18 07:43:33;;;;;;;;;;;;;;;;;;5095898;28;19925;-77
2022/08/18 07:46:06;;;;;;;;;;;;;;;;;;5114458;28;19916;-78
2022/08/18 07:48:32;;;;;;;;;;;;;;;;;;5079193;28;19957;-78
2022/08/18 07:51:00;;;;;;;;;;;;;;;;;;5079085;28;20289;-77
2022/08/18 07:53:37;;;;;;;;;;;;;;;;;;5114148;28;20217;-78
2022/08/18 07:56:11;;;;;;;;;;;;;;;;;;5096423;28;20052;-77
2022/08/18 07:58:42;;;;;;;;;;;;;;;;;;5117329;28;19923;-78
2022/08/18 08:01:11;;;;;;;;;;;;;;;;;;5082537;28;19920;-78
2022/08/18 08:03:50;;;;;;;;;;;;;;;;;;5117811;28;19916;-78
2022/08/18 08:06:16;;;;;;;;;;;;;;;;;;5099470;28;20325;-78
2022/08/18 08:08:42;;;;;;;;;;;;;;;;;;5117671;28;19916;-78
2022/08/18 08:11:11;;;;;;;;;;;;;;;;;;5082715;28;20255;-77
2022/08/18 08:13:37;;;;;;;;;;;;;;;;;;5117512;28;19989;-79
2022/08/18 08:16:02;;;;;;;;;;;;;;;;;;5117354;28;19920;-77
2022/08/18 08:18:30;;;;;;;;;;;;;;;;;;5099536;28;19920;-77
2022/08/18 08:20:56;;;;;;;;;;;;;;;;;;5117834;28;20373;-79
2022/08/18 08:23:29;;;;;;;;;;;;;;;;;;5099366;28;20048;-78
2022/08/18 08:25:59;;;;;;;;;;;;;;;;;;5082773;28;19917;-79
2022/08/18 08:28:30;;;;;;;;;;;;;;;;;;5099360;28;19916;-78
2022/08/18 08:30:58;;;;;;;;;;;;;;;;;;5098827;28;20610;-77
2022/08/18 08:33:28;;;;;;;;;;;;;;;;;;5117205;28;19915;-78
2022/08/18 08:35:58;;;;;;;;;;;;;;;;;;5082466;28;20317;-77
2022/08/18 08:38:28;;;;;;;;;;;;;;;;;;5098962;28;19923;-77
2022/08/18 08:40:56;;;;;;;;;;;;;;;;;;5098957;28;20246;-77
2022/08/18 08:43:26;;;;;;;;;;;;;;;;;;5099022;28;20348;-76
2022/08/18 08:46:04;;;;;;;;;;;;;;;;;;5098578;28;19965;-77
2022/08/18 08:48:30;;;;;;;;;;;;;;;;;;5098916;28;20245;-77
2022/08/18 08:51:00;;;;;;;;;;;;;;;;;;5098608;28;20071;-78
2022/08/18 08:53:29;;;;;;;;;;;;;;;;;;5098927;28;20577;-77
2022/08/18 08:55:55;;;;;;;;;;;;;;;;;;5098541;28;19915;-77
2022/08/18 08:58:22;;;;;;;;;;;;;;;;;;5081591;28;19926;-78
2022/08/18 09:00:47;;;;;;;;;;;;;;;;;;5098104;28;19919;-77
2022/08/18 09:03:13;;;;;;;;;;;;;;;;;;5081873;28;19938;-76
2022/08/18 09:05:40;;;;;;;;;;;;;;;;;;5116921;28;19916;-77
2022/08/18 09:08:09;;;;;;;;;;;;;;;;;;5097753;28;20338;-79
2022/08/18 09:10:41;;;;;;;;;;;;;;;;;;5097227;28;19916;-77
2022/08/18 09:13:09;;;;;;;;;;;;;;;;;;5098059;28;19920;-77
2022/08/18 09:15:37;;;;;;;;;;;;;;;;;;5115868;28;19911;-79
2022/08/18 09:18:22;;;;;;;;;;;;;;;;;;5116074;28;19923;-79
2022/08/18 09:20:52;;;;;;;;;;;;;;;;;;5116000;28;20353;-78
2022/08/18 09:23:25;;;;;;;;;;;;;;;;;;5097956;28;19938;-77
2022/08/18 09:25:52;;;;;;;;;;;;;;;;;;5098194;28;19911;-76
2022/08/18 09:28:26;;;;;;;;;;;;;;;;;;5116184;28;20325;-78
2022/08/18 09:31:01;;;;;;;;;;;;;;;;;;5116300;28;19955;-78
2022/08/18 09:33:45;;;;;;;;;;;;;;;;;;5115857;28;19916;-76
2022/08/18 09:36:13;;;;;;;;;;;;;;;;;;5098097;28;20003;-75
2022/08/18 09:41:31;;;;;;;;;;;;;;;;;;5104323;28;19937;-77
2022/08/18 09:44:09;;;;;;;;;;;;;;;;;;5097096;28;19916;-76
2022/08/18 09:46:54;;;;;;;;;;;;;;;;;;5105938;28;19916;-77
2022/08/18 09:49:22;;;;;;;;;;;;;;;;;;5118411;28;19926;-77
2022/08/18 09:51:57;;;;;;;;;;;;;;;;;;5097651;28;19916;-75
2022/08/18 09:54:24;;;;;;;;;;;;;;;;;;5097447;28;19984;-77
2022/08/18 09:56:49;;;;;;;;;;;;;;;;;;5097225;28;20269;-77
2022/08/18 09:59:33;;;;;;;;;;;;;;;;;;5115091;28;19912;-76
2022/08/18 10:02:02;;;;;;;;;;;;;;;;;;5115359;28;19916;-76
2022/08/18 10:04:31;;;;;;;;;;;;;;;;;;5097418;28;19916;-76
2022/08/18 10:07:15;;;;;;;;;;;;;;;;;;5115591;28;19922;-75
2022/08/18 10:09:43;;;;;;;;;;;;;;;;;;5115632;28;19920;-76
2022/08/18 10:12:09;;;;;;;;;;;;;;;;;;5097167;28;19920;-77
2022/08/18 10:14:53;;;;;;;;;;;;;;;;;;5115455;28;20138;-76
2022/08/18 10:17:18;;;;;;;;;;;;;;;;;;5115147;28;19922;-77
2022/08/18 10:19:47;;;;;;;;;;;;;;;;;;5114766;28;19912;-76
2022/08/18 10:22:12;;;;;;;;;;;;;;;;;;5115179;28;19916;-77
2022/08/18 10:24:45;;;;;;;;;;;;;;;;;;5097179;28;19977;-76
2022/08/18 10:27:30;;;;;;;;;;;;;;;;;;5079887;28;19979;-77
2022/08/18 10:29:55;;;;;;;;;;;;;;;;;;5114904;28;19916;-75
2022/08/18 10:32:21;;;;;;;;;;;;;;;;;;5096859;28;19915;-78
2022/08/18 10:34:47;;;;;;;;;;;;;;;;;;5096713;28;19955;-77
2022/08/18 10:37:31;;;;;;;;;;;;;;;;;;5096726;28;19923;-76
2022/08/18 10:39:59;;;;;;;;;;;;;;;;;;5114843;28;19916;-76
2022/08/18 10:42:32;;;;;;;;;;;;;;;;;;5096516;28;19954;-77
2022/08/18 10:45:09;;;;;;;;;;;;;;;;;;5080093;28;20360;-76
2022/08/18 10:47:34;;;;;;;;;;;;;;;;;;5079684;28;19947;-76
2022/08/18 10:50:02;;;;;;;;;;;;;;;;;;5096597;28;20340;-77
2022/08/18 10:52:46;;;;;;;;;;;;;;;;;;5114917;28;20344;-76
2022/08/18 10:55:17;;;;;;;;;;;;;;;;;;5114546;28;19972;-76
2022/08/18 10:57:46;;;;;;;;;;;;;;;;;;5079575;28;19915;-76
2022/08/18 11:00:17;;;;;;;;;;;;;;;;;;5114513;28;20343;-77
2022/08/18 11:02:46;;;;;;;;;;;;;;;;;;5080199;28;19916;-76
2022/08/18 11:05:21;;;;;;;;;;;;;;;;;;5096814;28;19915;-76
2022/08/18 11:07:47;;;;;;;;;;;;;;;;;;5096498;28;19940;-76
2022/08/18 11:10:36;;;;;;;;;;;;;;;;;;5079475;28;20477;-75
2022/08/18 11:13:08;;;;;;;;;;;;;;;;;;5085903;28;20333;-75
2022/08/18 11:15:51;;;;;;;;;;;;;;;;;;5114580;28;19916;-77
2022/08/18 11:18:27;;;;;;;;;;;;;;;;;;5114503;28;20014;-77
2022/08/18 11:20:53;;;;;;;;;;;;;;;;;;5080207;28;19964;-75
2022/08/18 11:23:19;;;;;;;;;;;;;;;;;;5097004;28;19973;-77
2022/08/18 11:25:45;;;;;;;;;;;;;;;;;;5096158;28;19916;-75
2022/08/18 11:28:17;;;;;;;;;;;;;;;;;;5096197;28;20313;-76
2022/08/18 11:30:43;;;;;;;;;;;;;;;;;;5079728;28;19920;-76
2022/08/18 11:33:09;;;;;;;;;;;;;;;;;;5098746;28;20045;-80
2022/08/18 11:35:56;;;;;;;;;;;;;;;;;;5083289;28;19916;-81
2022/08/18 11:38:21;;;;;;;;;;;;;;;;;;5118849;28;19922;-80
2022/08/18 11:40:49;;;;;;;;;;;;;;;;;;5100145;28;19915;-80
2022/08/18 11:43:16;;;;;;;;;;;;;;;;;;5118159;28;19916;-81
2022/08/18 11:45:54;;;;;;;;;;;;;;;;;;5083058;28;19916;-79
2022/08/18 11:48:37;;;;;;;;;;;;;;;;;;5100105;28;19915;-79
2022/08/18 11:51:09;;;;;;;;;;;;;;;;;;5083226;28;19916;-78
2022/08/18 11:53:41;;;;;;;;;;;;;;;;;;5117754;28;19916;-80
2022/08/18 11:56:13;;;;;;;;;;;;;;;;;;5083474;28;20328;-80
2022/08/18 11:58:44;;;;;;;;;;;;;;;;;;5100602;28;19923;-80
2022/08/18 12:01:10;;;;;;;;;;;;;;;;;;5099699;28;19969;-81
2022/08/18 12:03:37;;;;;;;;;;;;;;;;;;5082877;28;19950;-81
2022/08/18 12:06:14;;;;;;;;;;;;;;;;;;5117799;28;20010;-81
2022/08/18 12:09:00;;;;;;;;;;;;;;;;;;5099557;28;19916;-80
2022/08/18 12:11:30;;;;;;;;;;;;;;;;;;5099459;28;19969;-81
2022/08/18 12:14:06;;;;;;;;;;;;;;;;;;5082776;28;19915;-78
2022/08/18 12:16:36;;;;;;;;;;;;;;;;;;5099447;28;19916;-78
2022/08/18 12:19:01;;;;;;;;;;;;;;;;;;5117801;28;19919;-79
2022/08/18 12:21:26;;;;;;;;;;;;;;;;;;5082722;28;19923;-79
2022/08/18 12:23:52;;;;;;;;;;;;;;;;;;5098898;28;19924;-78
2022/08/18 12:26:18;;;;;;;;;;;;;;;;;;5099166;28;19920;-81
2022/08/18 12:28:43;;;;;;;;;;;;;;;;;;5117410;28;20381;-79
2022/08/18 12:31:08;;;;;;;;;;;;;;;;;;5098974;28;20333;-80
2022/08/18 12:33:34;;;;;;;;;;;;;;;;;;5099214;28;19916;-78
2022/08/18 12:35:59;;;;;;;;;;;;;;;;;;5099132;28;20387;-78
2022/08/18 12:38:25;;;;;;;;;;;;;;;;;;5116884;28;19955;-78
2022/08/18 12:40:50;;;;;;;;;;;;;;;;;;5117436;28;19916;-79
2022/08/18 12:43:15;;;;;;;;;;;;;;;;;;5098879;28;20056;-78
2022/08/18 12:45:41;;;;;;;;;;;;;;;;;;5117209;28;19927;-79
2022/08/18 12:48:06;;;;;;;;;;;;;;;;;;5081962;28;19916;-79
2022/08/18 12:50:32;;;;;;;;;;;;;;;;;;5098661;28;19994;-80
2022/08/18 12:52:57;;;;;;;;;;;;;;;;;;5098405;28;20002;-78
2022/08/18 12:55:22;;;;;;;;;;;;;;;;;;5098666;28;19920;-78
2022/08/18 12:57:48;;;;;;;;;;;;;;;;;;5116755;28;19919;-79
2022/08/18 13:00:13;;;;;;;;;;;;;;;;;;5098615;28;20319;-79
2022/08/18 13:02:39;;;;;;;;;;;;;;;;;;5099160;28;19916;-80
2022/08/18 13:05:05;;;;;;;;;;;;;;;;;;5098303;28;19912;-79
2022/08/18 13:07:30;;;;;;;;;;;;;;;;;;5116278;28;20321;-78
2022/08/18 13:09:56;;;;;;;;;;;;;;;;;;5098288;28;19922;-79
2022/08/18 13:12:21;;;;;;;;;;;;;;;;;;5116548;28;19993;-79
2022/08/18 13:14:47;;;;;;;;;;;;;;;;;;5098303;28;19968;-79
2022/08/18 13:17:12;;;;;;;;;;;;;;;;;;5098185;28;19937;-79
2022/08/18 13:19:38;;;;;;;;;;;;;;;;;;5098432;28;20242;-80
2022/08/18 13:22:03;;;;;;;;;;;;;;;;;;5116051;28;19915;-80
2022/08/18 13:24:29;;;;;;;;;;;;;;;;;;5115513;28;19916;-80
2022/08/18 13:26:55;;;;;;;;;;;;;;;;;;5115347;28;20322;-79
2022/08/18 13:29:20;;;;;;;;;;;;;;;;;;5097996;28;21166;-81
2022/08/18 13:31:46;;;;;;;;;;;;;;;;;;5081157;28;19928;-79
2022/08/18 13:34:12;;;;;;;;;;;;;;;;;;5098015;28;20313;-79
2022/08/18 13:36:43;;;;;;;;;;;;;;;;;;5115807;28;20374;-80
2022/08/18 13:39:10;;;;;;;;;;;;;;;;;;5098699;28;20345;-80
2022/08/18 13:41:35;;;;;;;;;;;;;;;;;;5096309;28;19936;-79
2022/08/18 13:44:00;;;;;;;;;;;;;;;;;;5097251;28;19926;-81
2022/08/18 13:46:26;;;;;;;;;;;;;;;;;;5117214;28;19916;-80
2022/08/18 13:48:51;;;;;;;;;;;;;;;;;;5114201;28;19916;-79
2022/08/18 13:51:22;;;;;;;;;;;;;;;;;;5096098;28;20002;-81
2022/08/18 13:53:47;;;;;;;;;;;;;;;;;;5095898;28;20227;-80
2022/08/18 13:56:13;;;;;;;;;;;;;;;;;;5096494;28;19956;-80
2022/08/18 13:58:39;;;;;;;;;;;;;;;;;;5115592;28;19923;-80
2022/08/18 14:01:06;;;;;;;;;;;;;;;;;;5097351;28;20012;-81
2022/08/18 14:03:31;;;;;;;;;;;;;;;;;;5080519;28;20061;-79
2022/08/18 14:06:01;;;;;;;;;;;;;;;;;;5097519;28;19969;-80
2022/08/18 14:08:26;;;;;;;;;;;;;;;;;;5085306;28;20234;-79
2022/08/18 14:10:53;;;;;;;;;;;;;;;;;;5100291;28;19922;-81
2022/08/18 14:13:18;;;;;;;;;;;;;;;;;;5097150;28;19916;-80
2022/08/18 14:15:44;;;;;;;;;;;;;;;;;;5097033;28;20014;-80
2022/08/18 14:18:09;;;;;;;;;;;;;;;;;;5114987;28;19916;-80
2022/08/18 14:28:47;;;;;;;;;;;;;;;;;;5116241;28;19923;-80
2022/08/18 14:31:12;;;;;;;;;;;;;;;;;;5096811;28;19916;-81
2022/08/18 14:33:38;;;;;;;;;;;;;;;;;;5114758;28;19916;-80
2022/08/18 14:36:04;;;;;;;;;;;;;;;;;;5114980;28;19916;-81
2022/08/18 14:38:30;;;;;;;;;;;;;;;;;;5097414;28;19920;-80
2022/08/18 14:40:55;;;;;;;;;;;;;;;;;;5115134;28;20432;-81
2022/08/18 14:43:21;;;;;;;;;;;;;;;;;;5096651;28;19922;-80
2022/08/18 14:45:47;;;;;;;;;;;;;;;;;;5096823;28;19927;-80
2022/08/18 14:48:13;;;;;;;;;;;;;;;;;;5096441;28;19916;-80
2022/08/18 14:50:39;;;;;;;;;;;;;;;;;;5098128;28;20368;-80
2022/08/18 14:53:05;;;;;;;;;;;;;;;;;;5096811;28;20261;-80
2022/08/18 14:55:31;;;;;;;;;;;;;;;;;;5096834;28;19916;-80
2022/08/18 14:57:57;;;;;;;;;;;;;;;;;;5114697;28;20006;-80
2022/08/18 15:00:23;;;;;;;;;;;;;;;;;;5114531;28;19946;-79
2022/08/18 15:02:48;;;;;;;;;;;;;;;;;;5115075;28;19916;-80
2022/08/18 15:05:13;;;;;;;;;;;;;;;;;;5114751;28;19918;-81
2022/08/18 15:07:39;;;;;;;;;;;;;;;;;;5116368;28;20006;-80
2022/08/18 15:10:05;;;;;;;;;;;;;;;;;;5119057;28;19972;-81
2022/08/18 15:12:30;;;;;;;;;;;;;;;;;;5084414;28;20010;-80
2022/08/18 15:14:56;;;;;;;;;;;;;;;;;;5118757;28;19916;-81
2022/08/18 15:17:22;;;;;;;;;;;;;;;;;;5118471;28;19916;-81
2022/08/18 15:19:47;;;;;;;;;;;;;;;;;;5118630;28;19923;-81
2022/08/18 15:27:40;;;;;;;;;;;;;;;;;;5118569;28;19926;-80
2022/08/18 15:30:07;;;;;;;;;;;;;;;;;;5100068;28;19927;-80
2022/08/18 15:32:32;;;;;;;;;;;;;;;;;;5118981;28;20264;-80
2022/08/18 15:34:58;;;;;;;;;;;;;;;;;;5118287;28;19911;-80
2022/08/18 15:37:23;;;;;;;;;;;;;;;;;;5100107;28;19916;-80
2022/08/18 15:39:48;;;;;;;;;;;;;;;;;;5083355;28;19989;-81
2022/08/18 15:42:14;;;;;;;;;;;;;;;;;;5118251;28;19912;-81
2022/08/18 15:44:39;;;;;;;;;;;;;;;;;;5099999;28;19916;-80
2022/08/18 15:47:04;;;;;;;;;;;;;;;;;;5118164;28;19935;-80
2022/08/18 15:49:31;;;;;;;;;;;;;;;;;;5099941;28;19916;-80
2022/08/18 15:51:56;;;;;;;;;;;;;;;;;;5100239;28;20347;-79
2022/08/18 15:54:21;;;;;;;;;;;;;;;;;;5100177;28;20377;-82
2022/08/18 15:56:47;;;;;;;;;;;;;;;;;;5099763;28;19995;-80
2022/08/18 15:59:12;;;;;;;;;;;;;;;;;;5099663;28;20392;-80
2022/08/18 16:01:37;;;;;;;;;;;;;;;;;;5117750;28;20333;-81
2022/08/18 16:04:03;;;;;;;;;;;;;;;;;;5083250;28;19916;-81
2022/08/18 16:06:29;;;;;;;;;;;;;;;;;;5117811;28;19916;-80
2022/08/18 16:08:54;;;;;;;;;;;;;;;;;;5099542;28;20601;-80
2022/08/18 16:11:20;;;;;;;;;;;;;;;;;;5082677;28;19923;-80
2022/08/18 16:13:46;;;;;;;;;;;;;;;;;;5099831;28;19997;-81
2022/08/18 16:16:13;;;;;;;;;;;;;;;;;;5083481;28;20253;-80
2022/08/18 16:18:38;;;;;;;;;;;;;;;;;;5082007;28;19923;-81
2022/08/18 16:21:10;;;;;;;;;;;;;;;;;;5117572;28;19915;-80
2022/08/18 16:23:39;;;;;;;;;;;;;;;;;;5099765;28;19922;-79
2022/08/18 16:26:04;;;;;;;;;;;;;;;;;;5099809;28;19915;-80
2022/08/18 16:28:30;;;;;;;;;;;;;;;;;;5117615;28;19915;-80
2022/08/18 16:30:56;;;;;;;;;;;;;;;;;;5117297;28;19959;-80
2022/08/18 16:33:21;;;;;;;;;;;;;;;;;;5099373;28;19947;-80
2022/08/18 16:35:48;;;;;;;;;;;;;;;;;;5099787;28;19923;-81
2022/08/18 16:38:13;;;;;;;;;;;;;;;;;;5118009;28;20304;-80
2022/08/18 16:40:39;;;;;;;;;;;;;;;;;;5117158;28;19950;-80
2022/08/18 16:43:06;;;;;;;;;;;;;;;;;;5116836;28;20434;-81
2022/08/18 16:45:33;;;;;;;;;;;;;;;;;;5098718;28;20238;-81
2022/08/18 16:47:58;;;;;;;;;;;;;;;;;;5098708;28;19916;-80
2022/08/18 16:50:24;;;;;;;;;;;;;;;;;;5116898;28;19972;-79
2022/08/18 16:52:49;;;;;;;;;;;;;;;;;;5116907;28;19915;-80
2022/08/18 16:55:14;;;;;;;;;;;;;;;;;;5099047;28;20388;-80
2022/08/18 17:05:58;;;;;;;;;;;;;;;;;;5101471;28;20356;-80
2022/08/18 17:08:24;;;;;;;;;;;;;;;;;;5098624;28;19923;-80
2022/08/18 17:10:49;;;;;;;;;;;;;;;;;;5098431;28;19916;-79
2022/08/18 17:13:14;;;;;;;;;;;;;;;;;;5098465;28;19998;-80
2022/08/18 17:15:40;;;;;;;;;;;;;;;;;;5116511;28;19915;-79
2022/08/18 17:18:06;;;;;;;;;;;;;;;;;;5118515;28;19915;-81
2022/08/18 17:20:32;;;;;;;;;;;;;;;;;;5117394;28;19923;-80
2022/08/18 17:22:58;;;;;;;;;;;;;;;;;;5098292;28;19916;-80
2022/08/18 17:25:24;;;;;;;;;;;;;;;;;;5082103;28;20273;-79
2022/08/18 17:27:49;;;;;;;;;;;;;;;;;;5081351;28;19967;-80